Westminster, California
Current Conditions -  °F | °C
As of 9:58 AM on Monday 26 Jan 2015 (Local Time) from KSLI Reporting Station
Broken Clouds Broken Clouds  
Wind Chill: 73°   Ceiling: 10000
Heat Index: 73°   Visibility: 10mi
Dew Point: 43°   Wind: 2mph
Humidity: 34%   Direction: NA
Pressure: 30.01"   Gusts: NA
Location:  33.76°N, 117.98°W
Report Text: KSLI 261758Z VRB02KT 10SM BKN100 23/06 A3001 RMK AO2A SLP165 T02280060 10228 20138 52015
Loading
Personal Weather Stations






























Interactive Weather Map New forecast layout! Learn more

10-Day Weather Forecast

Advertisements
Track Severe Weather on mobile